createdAt,value
2018-12-22T00:01:21.125Z,79.26
2018-12-22T00:03:48.869Z,79.04
2018-12-22T00:06:16.578Z,78.84
2018-12-22T00:08:44.373Z,79.14
2018-12-22T00:11:12.125Z,78.96
2018-12-22T00:13:39.886Z,79.01
2018-12-22T00:16:07.645Z,79.99
2018-12-22T00:18:35.352Z,79.93
2018-12-22T00:21:03.117Z,80.51
2018-12-22T00:23:30.867Z,80.39
2018-12-22T00:25:58.610Z,80.28
2018-12-22T00:28:26.344Z,80.18
2018-12-22T00:30:54.096Z,79.99
2018-12-22T00:33:21.857Z,80.07
2018-12-22T00:35:49.544Z,79.90
2018-12-22T00:38:17.251Z,79.92
2018-12-22T00:40:44.950Z,79.95
2018-12-22T00:43:12.760Z,80.15
2018-12-22T00:45:40.510Z,80.23
2018-12-22T00:48:08.249Z,80.24
2018-12-22T00:50:35.991Z,79.19
2018-12-22T00:53:03.902Z,79.36
2018-12-22T00:55:31.633Z,79.42
2018-12-22T00:57:59.346Z,78.98
2018-12-22T01:00:27.096Z,79.01
2018-12-22T01:02:54.869Z,78.98
2018-12-22T01:05:22.605Z,78.63
2018-12-22T01:07:50.398Z,78.55
2018-12-22T01:10:18.095Z,78.84
2018-12-22T01:12:45.813Z,79.16
2018-12-22T01:15:13.696Z,78.88
2018-12-22T01:17:41.412Z,79.01
2018-12-22T01:20:09.367Z,79.04
2018-12-22T01:22:37.191Z,78.97
2018-12-22T01:25:05.694Z,78.78
2018-12-22T01:27:33.406Z,78.81
2018-12-22T01:30:01.103Z,78.79
2018-12-22T01:32:28.843Z,79.18
2018-12-22T01:34:56.577Z,79.10
2018-12-22T01:37:24.287Z,78.84
2018-12-22T01:39:52.095Z,78.90
2018-12-22T01:42:19.842Z,78.79
2018-12-22T01:44:47.626Z,79.31
2018-12-22T01:47:15.360Z,79.11
2018-12-22T01:49:43.100Z,79.52
2018-12-22T01:52:10.855Z,79.42
2018-12-22T01:54:38.573Z,79.35
2018-12-22T01:57:06.323Z,79.46
2018-12-22T01:59:34.037Z,79.27
2018-12-22T02:02:01.769Z,79.21
2018-12-22T02:04:29.488Z,79.21
2018-12-22T02:06:57.235Z,79.09
2018-12-22T02:09:24.956Z,79.11
2018-12-22T02:11:52.672Z,79.19
2018-12-22T02:14:20.908Z,80.04
2018-12-22T02:16:48.704Z,79.64
2018-12-22T02:19:16.386Z,79.91
2018-12-22T02:21:44.115Z,79.95
2018-12-22T02:24:11.844Z,80.51
2018-12-22T02:26:39.695Z,79.92
2018-12-22T02:29:07.614Z,79.74
2018-12-22T02:31:35.314Z,79.62
2018-12-22T02:34:03.128Z,79.45
2018-12-22T02:36:30.876Z,79.45
2018-12-22T02:38:58.582Z,79.65
2018-12-22T02:41:26.350Z,79.87
2018-12-22T02:43:54.053Z,79.73
2018-12-22T02:46:21.811Z,79.65
2018-12-22T02:48:49.669Z,79.70
2018-12-22T02:51:17.418Z,79.58
2018-12-22T02:53:45.129Z,79.98
2018-12-22T02:56:12.857Z,80.13
2018-12-22T02:58:40.599Z,79.93
2018-12-22T03:01:08.366Z,79.54
2018-12-22T03:03:36.517Z,79.46
2018-12-22T03:06:04.251Z,79.37
2018-12-22T03:08:31.981Z,79.28
2018-12-22T03:10:59.707Z,79.49
2018-12-22T03:13:27.410Z,79.17
2018-12-22T03:15:55.125Z,78.77
2018-12-22T03:18:22.833Z,78.98
2018-12-22T03:20:50.629Z,78.83
2018-12-22T03:23:18.385Z,78.78
2018-12-22T03:25:46.108Z,78.87
2018-12-22T03:28:13.851Z,79.02
2018-12-22T03:30:41.618Z,78.63
2018-12-22T03:33:09.377Z,78.91
2018-12-22T03:35:37.164Z,78.67
2018-12-22T03:38:04.907Z,78.67
2018-12-22T03:40:32.667Z,78.55
2018-12-22T03:43:00.440Z,78.53
2018-12-22T03:45:28.158Z,78.50
2018-12-22T03:47:55.925Z,78.23
2018-12-22T03:50:23.664Z,78.32
2018-12-22T03:52:51.441Z,78.12
2018-12-22T03:55:19.182Z,77.63
2018-12-22T03:57:46.922Z,77.86
2018-12-22T04:00:14.670Z,77.87
2018-12-22T04:02:42.409Z,77.60
2018-12-22T04:05:10.218Z,77.68
2018-12-22T04:07:37.972Z,77.55
2018-12-22T04:10:06.261Z,77.34
2018-12-22T04:12:33.972Z,77.25
2018-12-22T04:15:01.703Z,77.01
2018-12-22T04:17:29.418Z,77.09
2018-12-22T04:19:57.147Z,76.88
2018-12-22T04:22:24.897Z,76.86
2018-12-22T04:24:54.400Z,76.81
2018-12-22T04:27:22.109Z,76.57
2018-12-22T04:29:49.818Z,76.43
2018-12-22T04:32:17.593Z,76.39
2018-12-22T04:34:45.353Z,76.22
2018-12-22T04:37:13.084Z,76.13
2018-12-22T04:39:40.833Z,76.19
2018-12-22T04:42:08.596Z,76.11
2018-12-22T04:44:36.347Z,75.82
2018-12-22T04:47:04.100Z,76.08
2018-12-22T04:49:31.816Z,75.94
2018-12-22T04:51:59.550Z,75.63
2018-12-22T04:54:27.230Z,75.76
2018-12-22T04:56:54.954Z,75.65
2018-12-22T04:59:22.679Z,75.64
2018-12-22T05:01:50.408Z,75.66
2018-12-22T05:04:18.162Z,75.74
2018-12-22T05:06:45.919Z,75.98
2018-12-22T05:09:13.734Z,76.05
2018-12-22T05:11:41.573Z,76.10
2018-12-22T05:14:09.308Z,76.14
2018-12-22T05:16:37.045Z,76.10
2018-12-22T05:19:04.752Z,76.33
2018-12-22T05:21:32.650Z,76.23
2018-12-22T05:24:00.375Z,76.26
2018-12-22T05:26:28.126Z,76.36
2018-12-22T05:28:55.856Z,76.26
2018-12-22T05:31:23.591Z,76.37
2018-12-22T05:33:51.317Z,76.60
2018-12-22T05:36:19.019Z,76.48
2018-12-22T05:38:46.769Z,76.48
2018-12-22T05:41:14.578Z,76.39
2018-12-22T05:43:42.393Z,76.51
2018-12-22T05:46:10.072Z,76.65
2018-12-22T05:48:38.721Z,76.89
2018-12-22T05:51:06.444Z,77.22
2018-12-22T05:53:34.217Z,77.21
2018-12-22T05:56:01.948Z,77.22
2018-12-22T05:58:30.748Z,77.66
2018-12-22T06:00:58.516Z,78.21
2018-12-22T06:03:26.253Z,78.27
2018-12-22T06:05:53.977Z,78.51
2018-12-22T06:08:21.708Z,78.36
2018-12-22T06:10:49.606Z,78.85
2018-12-22T06:13:17.345Z,79.23
2018-12-22T06:15:45.078Z,79.47
2018-12-22T06:18:12.785Z,79.17
2018-12-22T06:20:40.552Z,79.03
2018-12-22T06:23:08.323Z,79.04
2018-12-22T06:25:36.036Z,79.08
2018-12-22T06:28:03.847Z,79.29
2018-12-22T06:30:31.549Z,79.50
2018-12-22T06:32:59.234Z,79.42
2018-12-22T06:35:26.953Z,79.85
2018-12-22T06:37:54.719Z,79.59
2018-12-22T06:40:22.547Z,79.79
2018-12-22T06:42:50.309Z,79.88
2018-12-22T06:45:18.086Z,79.91
2018-12-22T06:47:45.827Z,80.16
2018-12-22T06:50:13.614Z,80.14
2018-12-22T06:52:41.466Z,80.20
2018-12-22T06:55:09.191Z,80.09
2018-12-22T06:57:36.979Z,79.76
2018-12-22T07:00:05.474Z,80.19
2018-12-22T07:02:33.307Z,80.33
2018-12-22T07:05:02.582Z,80.18
2018-12-22T07:07:30.440Z,80.28
2018-12-22T07:09:58.155Z,80.17
2018-12-22T07:12:25.908Z,80.21
2018-12-22T07:14:53.657Z,80.34
2018-12-22T07:17:21.842Z,80.68
2018-12-22T07:19:49.570Z,80.30
2018-12-22T07:22:17.303Z,80.11
2018-12-22T07:24:45.044Z,80.06
2018-12-22T07:27:12.768Z,80.49
2018-12-22T07:29:40.508Z,80.55
2018-12-22T07:32:08.215Z,80.93
2018-12-22T07:34:35.924Z,80.89
2018-12-22T07:37:03.640Z,81.32
2018-12-22T07:39:31.464Z,81.28
2018-12-22T07:41:59.229Z,81.08
2018-12-22T07:44:27.089Z,81.01
2018-12-22T07:46:54.906Z,80.92
2018-12-22T07:49:22.698Z,80.71
2018-12-22T07:51:50.402Z,80.69
2018-12-22T07:54:18.119Z,80.65
2018-12-22T07:56:45.857Z,80.43
2018-12-22T07:59:13.562Z,80.30
2018-12-22T08:01:41.264Z,80.84
2018-12-22T08:04:08.971Z,80.86
2018-12-22T08:06:36.668Z,80.89
2018-12-22T08:09:06.592Z,80.83
2018-12-22T08:11:34.344Z,81.28
2018-12-22T08:14:02.085Z,81.45
2018-12-22T08:16:29.890Z,81.43
2018-12-22T08:18:57.701Z,81.50
2018-12-22T08:21:25.461Z,81.03
2018-12-22T08:23:53.163Z,81.07
2018-12-22T08:26:20.889Z,81.21
2018-12-22T08:28:49.341Z,80.75
2018-12-22T08:31:17.115Z,80.98
2018-12-22T08:33:44.855Z,80.95
2018-12-22T08:36:12.630Z,80.95
2018-12-22T08:38:40.394Z,81.09
2018-12-22T08:41:08.177Z,81.13
2018-12-22T08:43:35.880Z,81.14
2018-12-22T08:46:03.685Z,81.65
2018-12-22T08:48:31.431Z,81.35
2018-12-22T08:50:59.166Z,81.02
2018-12-22T08:53:26.929Z,80.96
2018-12-22T08:55:54.668Z,80.96
2018-12-22T08:58:22.393Z,81.64
2018-12-22T09:00:52.329Z,81.28
2018-12-22T09:03:20.434Z,80.91
2018-12-22T09:05:48.238Z,81.51
2018-12-22T09:08:16.050Z,81.42
2018-12-22T09:10:43.888Z,81.33
2018-12-22T09:13:11.896Z,81.10
2018-12-22T09:15:39.624Z,81.33
2018-12-22T09:18:07.796Z,81.24
2018-12-22T09:20:35.566Z,81.10
2018-12-22T09:23:03.506Z,80.86
2018-12-22T09:25:31.302Z,81.51
2018-12-22T09:27:59.107Z,81.37
2018-12-22T09:30:26.820Z,81.00
2018-12-22T09:32:54.690Z,81.45
2018-12-22T09:35:22.484Z,81.59
2018-12-22T09:37:50.210Z,81.28
2018-12-22T09:40:17.954Z,81.56
2018-12-22T09:42:45.688Z,81.60
2018-12-22T09:45:13.425Z,81.66
2018-12-22T09:47:41.164Z,81.74
2018-12-22T09:50:11.225Z,81.31
2018-12-22T09:52:38.975Z,81.95
2018-12-22T09:55:06.781Z,82.24
2018-12-22T09:57:34.584Z,82.23
2018-12-22T10:00:02.613Z,82.18
2018-12-22T10:02:30.349Z,81.96
2018-12-22T10:04:58.068Z,82.05
2018-12-22T10:07:25.793Z,82.21
2018-12-22T10:09:53.522Z,82.14
2018-12-22T10:12:21.227Z,82.34
2018-12-22T10:14:49.341Z,82.54
2018-12-22T10:17:17.064Z,82.06
2018-12-22T10:19:44.769Z,82.50
2018-12-22T10:22:12.514Z,82.88
2018-12-22T10:24:40.229Z,82.77
2018-12-22T10:27:08.044Z,83.03
2018-12-22T10:29:35.787Z,82.72
2018-12-22T10:32:03.552Z,82.13
2018-12-22T10:34:31.366Z,82.42
2018-12-22T10:36:59.068Z,82.32
2018-12-22T10:39:26.896Z,82.63
2018-12-22T10:41:55.658Z,82.46
2018-12-22T10:44:23.539Z,81.80
2018-12-22T10:46:51.340Z,82.13
2018-12-22T10:49:20.320Z,82.08
2018-12-22T10:51:48.016Z,81.74
2018-12-22T10:54:15.750Z,82.48
2018-12-22T10:56:43.510Z,82.99
2018-12-22T10:59:11.228Z,82.97
2018-12-22T11:01:38.931Z,82.74
2018-12-22T11:04:06.657Z,82.33
2018-12-22T11:06:34.458Z,82.07
2018-12-22T11:09:02.567Z,83.16
2018-12-22T11:11:30.309Z,82.04
2018-12-22T11:13:58.037Z,82.57
2018-12-22T11:16:26.643Z,82.54
2018-12-22T11:18:54.342Z,82.89
2018-12-22T11:21:22.084Z,82.35
2018-12-22T11:23:49.908Z,81.78
2018-12-22T11:26:17.627Z,82.11
2018-12-22T11:28:45.353Z,82.21
2018-12-22T11:31:13.041Z,82.08
2018-12-22T11:33:40.787Z,82.28
2018-12-22T11:36:08.467Z,82.27
2018-12-22T11:38:36.157Z,82.22
2018-12-22T11:41:03.925Z,81.80
2018-12-22T11:43:31.737Z,82.39
2018-12-22T11:45:59.485Z,82.00
2018-12-22T11:48:52.138Z,81.93
2018-12-22T11:51:20.014Z,81.17
2018-12-22T11:53:48.357Z,81.73
2018-12-22T11:56:16.073Z,81.57
2018-12-22T11:58:43.874Z,81.46
2018-12-22T12:01:11.592Z,81.36
2018-12-22T12:03:39.293Z,81.14
2018-12-22T12:06:07.060Z,81.05
2018-12-22T12:08:34.803Z,80.51
2018-12-22T12:11:02.524Z,80.10
2018-12-22T12:13:30.259Z,80.48
2018-12-22T12:16:38.579Z,79.96
2018-12-22T12:19:18.753Z,80.28
2018-12-22T12:21:46.479Z,80.32
2018-12-22T12:24:15.019Z,80.06
2018-12-22T12:26:42.901Z,80.02
2018-12-22T12:29:10.722Z,80.02
2018-12-22T12:31:38.421Z,79.61
2018-12-22T12:34:06.272Z,79.84
2018-12-22T12:36:34.569Z,80.18
2018-12-22T12:39:02.409Z,80.42
2018-12-22T12:41:30.261Z,80.62
2018-12-22T12:43:58.226Z,80.12
2018-12-22T12:46:47.120Z,79.96
2018-12-22T12:49:15.438Z,80.29
2018-12-22T12:51:43.179Z,80.33
2018-12-22T12:54:10.973Z,80.26
2018-12-22T12:56:42.305Z,80.32
2018-12-22T12:59:10.052Z,80.75
2018-12-22T13:01:38.122Z,81.01
2018-12-22T13:04:05.836Z,80.79
2018-12-22T13:06:37.022Z,80.70
2018-12-22T13:09:07.008Z,80.42
2018-12-22T13:11:34.747Z,80.67
2018-12-22T13:14:07.911Z,80.76
2018-12-22T13:16:36.231Z,80.59
2018-12-22T13:19:03.996Z,80.92
2018-12-22T13:21:32.067Z,80.86
2018-12-22T13:23:59.823Z,81.29
2018-12-22T13:26:36.418Z,81.48
2018-12-22T13:28:57.427Z,81.54
2018-12-22T13:31:26.738Z,81.50
2018-12-22T13:33:54.490Z,81.79
2018-12-22T13:36:22.269Z,81.99
2018-12-22T13:38:59.660Z,81.43
2018-12-22T13:41:27.433Z,81.27
2018-12-22T13:43:55.211Z,81.60
2018-12-22T13:46:22.967Z,81.76
2018-12-22T13:48:50.876Z,81.43
2018-12-22T13:51:18.921Z,81.47
2018-12-22T13:53:46.796Z,81.75
2018-12-22T13:56:14.533Z,81.58
2018-12-22T13:58:42.933Z,81.39
2018-12-22T14:01:13.981Z,81.38
2018-12-22T14:03:43.810Z,81.83
2018-12-22T14:06:16.987Z,81.94
2018-12-22T14:08:44.710Z,81.43
2018-12-22T14:11:12.427Z,81.67
2018-12-22T14:13:40.148Z,81.60
2018-12-22T14:16:13.632Z,81.30
2018-12-22T14:18:48.464Z,81.76
2018-12-22T14:21:16.544Z,81.21
2018-12-22T14:24:14.397Z,81.26
2018-12-22T14:26:42.216Z,81.25
2018-12-22T14:29:09.920Z,81.16
2018-12-22T14:31:37.626Z,81.23
2018-12-22T14:34:10.052Z,81.58
2018-12-22T14:36:37.782Z,81.33
2018-12-22T14:39:07.157Z,81.02
2018-12-22T14:41:34.941Z,81.40
2018-12-22T14:44:02.687Z,81.78
2018-12-22T14:46:30.395Z,81.49
2018-12-22T14:48:58.135Z,81.25
2018-12-22T14:51:25.848Z,81.58
2018-12-22T14:53:53.552Z,81.35
2018-12-22T14:56:22.619Z,81.48
2018-12-22T14:58:50.410Z,81.35
2018-12-22T15:01:18.214Z,81.52
2018-12-22T15:03:46.831Z,81.47
2018-12-22T15:06:14.556Z,81.40
2018-12-22T15:08:42.279Z,81.06
2018-12-22T15:11:10.130Z,81.25
2018-12-22T15:13:37.877Z,81.30
2018-12-22T15:16:05.633Z,80.84
2018-12-22T15:18:33.464Z,80.72
2018-12-22T15:21:01.210Z,80.44
2018-12-22T15:23:28.900Z,80.39
2018-12-22T15:25:56.666Z,80.31
2018-12-22T15:28:24.389Z,80.32
2018-12-22T15:30:52.121Z,79.97
2018-12-22T15:33:19.846Z,80.01
2018-12-22T15:35:47.612Z,79.73
2018-12-22T15:38:15.364Z,79.57
2018-12-22T15:40:43.108Z,79.66
2018-12-22T15:43:10.829Z,79.50
2018-12-22T15:45:38.597Z,79.43
2018-12-22T15:48:06.769Z,78.84
2018-12-22T15:50:36.241Z,78.64
2018-12-22T15:53:04.153Z,78.42
2018-12-22T15:55:31.897Z,78.79
2018-12-22T15:57:59.724Z,78.91
2018-12-22T16:00:27.486Z,79.15
2018-12-22T16:02:55.186Z,79.14
2018-12-22T16:05:22.987Z,78.86
2018-12-22T16:07:52.080Z,78.86
2018-12-22T16:10:19.799Z,78.79
2018-12-22T16:12:47.580Z,79.02
2018-12-22T16:15:17.213Z,79.41
2018-12-22T16:17:44.974Z,79.44
2018-12-22T16:20:14.112Z,79.58
2018-12-22T16:22:45.934Z,79.66
2018-12-22T16:25:13.731Z,80.18
2018-12-22T16:27:41.483Z,79.78
2018-12-22T16:30:16.979Z,79.95
2018-12-22T16:32:44.710Z,80.07
2018-12-22T16:35:12.469Z,80.04
2018-12-22T16:37:40.254Z,79.67
2018-12-22T16:40:09.385Z,80.51
2018-12-22T16:42:37.125Z,80.16
2018-12-22T16:45:06.706Z,79.65
2018-12-22T16:47:34.440Z,79.94
2018-12-22T16:50:02.155Z,79.86
2018-12-22T16:52:29.916Z,79.52
2018-12-22T16:54:57.677Z,79.65
2018-12-22T16:57:25.483Z,79.49
2018-12-22T16:59:53.425Z,79.32
2018-12-22T17:02:34.612Z,79.09
2018-12-22T17:05:02.394Z,79.17
2018-12-22T17:07:30.193Z,79.27
2018-12-22T17:09:57.972Z,78.99
2018-12-22T17:12:25.748Z,78.55
2018-12-22T17:14:53.549Z,78.41
2018-12-22T17:17:21.350Z,78.11
2018-12-22T17:19:49.097Z,78.07
2018-12-22T17:23:22.787Z,77.96
2018-12-22T17:25:53.810Z,78.14
2018-12-22T17:28:28.175Z,78.07
2018-12-22T17:30:51.485Z,77.58
2018-12-22T17:33:20.263Z,77.54
2018-12-22T17:35:48.142Z,77.22
2018-12-22T17:38:15.865Z,77.18
2018-12-22T17:40:43.605Z,77.13
2018-12-22T17:43:11.334Z,76.97
2018-12-22T17:45:39.108Z,76.95
2018-12-22T17:48:06.940Z,76.97
2018-12-22T17:50:34.661Z,76.89
2018-12-22T17:53:02.394Z,76.93
2018-12-22T17:55:30.193Z,77.02
2018-12-22T17:57:57.953Z,77.49
2018-12-22T18:00:25.747Z,77.85
2018-12-22T18:02:53.558Z,78.47
2018-12-22T18:05:21.369Z,78.92
2018-12-22T18:07:55.525Z,78.74
2018-12-22T18:10:23.271Z,78.72
2018-12-22T18:12:51.633Z,79.05
2018-12-22T18:15:21.441Z,79.18
2018-12-22T18:20:25.291Z,79.09
2018-12-22T18:22:53.007Z,78.92
2018-12-22T18:25:22.015Z,78.98
2018-12-22T18:27:49.792Z,78.92
2018-12-22T18:30:17.574Z,78.98
2018-12-22T18:32:45.435Z,79.24
2018-12-22T18:35:13.197Z,79.55
2018-12-22T18:37:40.933Z,79.18
2018-12-22T18:45:11.009Z,79.32
2018-12-22T18:47:38.953Z,79.57
2018-12-22T18:50:10.866Z,80.22
2018-12-22T18:52:38.629Z,80.23
2018-12-22T18:55:07.473Z,80.02
2018-12-22T18:57:35.245Z,80.06
2018-12-22T19:00:03.376Z,79.86
2018-12-22T19:02:31.185Z,79.93
2018-12-22T19:04:58.987Z,79.96
2018-12-22T19:07:26.794Z,79.84
2018-12-22T19:09:54.560Z,79.63
2018-12-22T19:12:22.257Z,79.79
2018-12-22T19:14:52.841Z,79.68
2018-12-22T19:17:20.705Z,79.68
2018-12-22T19:19:48.972Z,79.87
2018-12-22T19:22:16.703Z,79.74
2018-12-22T19:24:45.323Z,80.15
2018-12-22T19:27:13.767Z,79.81
2018-12-22T19:29:42.112Z,80.00
2018-12-22T19:32:10.866Z,80.14
2018-12-22T19:34:39.501Z,80.69
2018-12-22T19:37:07.307Z,80.71
2018-12-22T19:39:35.036Z,80.53
2018-12-22T19:42:02.721Z,80.34
2018-12-22T19:44:35.037Z,80.45
2018-12-22T19:47:03.666Z,80.32
2018-12-22T19:49:31.603Z,80.54
2018-12-22T19:52:00.776Z,80.91
2018-12-22T19:54:37.728Z,81.53
2018-12-22T19:57:05.641Z,81.12
2018-12-22T19:59:33.415Z,81.32
2018-12-22T20:02:01.131Z,81.54
2018-12-22T20:04:28.872Z,81.70
2018-12-22T20:06:56.623Z,81.55
2018-12-22T20:09:25.965Z,81.51
2018-12-22T20:11:54.255Z,81.17
2018-12-22T20:14:22.013Z,81.27
2018-12-22T20:16:49.835Z,81.34
2018-12-22T20:19:17.524Z,81.16
2018-12-22T20:21:45.233Z,80.75
2018-12-22T20:24:12.965Z,80.56
2018-12-22T20:26:40.713Z,80.35
2018-12-22T20:29:08.452Z,81.15
2018-12-22T20:31:36.163Z,81.07
2018-12-22T20:34:11.087Z,80.94
2018-12-22T20:36:33.668Z,81.13
2018-12-22T20:39:01.384Z,81.68
2018-12-22T20:41:29.092Z,81.45
2018-12-22T20:43:56.828Z,81.72
2018-12-22T20:46:24.557Z,81.90
2018-12-22T20:48:52.324Z,81.62
2018-12-22T20:51:20.041Z,81.30
2018-12-22T20:53:47.736Z,81.22
2018-12-22T20:56:15.427Z,81.01
2018-12-22T20:58:43.155Z,81.31
2018-12-22T21:01:10.876Z,81.66
2018-12-22T21:03:40.118Z,81.36
2018-12-22T21:06:15.707Z,80.85
2018-12-22T21:08:43.521Z,80.46
2018-12-22T21:11:11.533Z,80.77
2018-12-22T21:13:39.268Z,80.45
2018-12-22T21:16:07.822Z,80.24
2018-12-22T21:18:35.644Z,80.39
2018-12-22T21:21:04.408Z,80.49
2018-12-22T21:23:32.124Z,79.91
2018-12-22T21:26:00.194Z,80.06
2018-12-22T21:28:28.004Z,80.41
2018-12-22T21:30:55.739Z,80.51
2018-12-22T21:33:23.489Z,80.06
2018-12-22T21:35:53.486Z,80.40
2018-12-22T21:38:21.032Z,80.80
2018-12-22T21:40:50.097Z,80.56
2018-12-22T21:43:18.034Z,80.32
2018-12-22T21:45:45.829Z,80.79
2018-12-22T21:48:13.646Z,80.46
2018-12-22T21:50:42.043Z,80.35
2018-12-22T21:53:10.743Z,80.04
2018-12-22T21:55:38.819Z,79.69
2018-12-22T21:58:07.133Z,79.73
2018-12-22T22:00:34.872Z,79.83
2018-12-22T22:03:02.617Z,79.56
2018-12-22T22:05:30.337Z,79.90
2018-12-22T22:07:58.460Z,80.25
2018-12-22T22:10:26.170Z,80.00
2018-12-22T22:12:53.863Z,80.02
2018-12-22T22:15:21.610Z,79.43
2018-12-22T22:17:52.357Z,80.16
2018-12-22T22:20:20.111Z,79.72
2018-12-22T22:22:48.641Z,79.72
2018-12-22T22:25:16.473Z,79.67
2018-12-22T22:27:44.215Z,80.02
2018-12-22T22:30:11.917Z,79.53
2018-12-22T22:32:39.682Z,80.25
2018-12-22T22:35:07.429Z,79.72
2018-12-22T22:37:35.126Z,79.71
2018-12-22T22:40:03.095Z,79.68
2018-12-22T22:42:30.832Z,79.67
2018-12-22T22:44:58.536Z,79.76
2018-12-22T22:47:26.244Z,80.40
2018-12-22T22:49:53.972Z,79.98
2018-12-22T22:52:21.668Z,80.79
2018-12-22T22:54:49.601Z,80.08
2018-12-22T22:57:17.328Z,79.95
2018-12-22T22:59:45.084Z,80.74
2018-12-22T23:02:12.824Z,80.82
2018-12-22T23:04:40.504Z,81.15
2018-12-22T23:07:08.252Z,80.86
2018-12-22T23:09:36.056Z,80.78
2018-12-22T23:12:03.826Z,80.41
2018-12-22T23:14:31.566Z,80.44
2018-12-22T23:16:59.313Z,80.43
2018-12-22T23:19:27.044Z,80.40
2018-12-22T23:21:54.794Z,80.25
2018-12-22T23:24:22.515Z,80.18
2018-12-22T23:26:50.342Z,80.93
2018-12-22T23:29:18.172Z,80.43
2018-12-22T23:31:46.101Z,80.53
2018-12-22T23:34:13.840Z,80.88
2018-12-22T23:36:41.564Z,81.20
2018-12-22T23:39:09.312Z,80.80
2018-12-22T23:41:37.112Z,80.53
2018-12-22T23:44:05.004Z,80.82
2018-12-22T23:46:32.812Z,80.65
2018-12-22T23:49:00.499Z,80.79
2018-12-22T23:51:28.237Z,80.80
2018-12-22T23:53:55.945Z,80.71
2018-12-22T23:56:23.637Z,80.48
2018-12-22T23:58:51.360Z,80.77
